Time;durP1;ratioP1;P1;durP2;ratioP2;P2;SDS_P1;SDS_P2;PMS_P1;PMS_P2;Temp;Humidity;BMP_temperature;BMP_pressure;BME280_temperature;BME280_humidity;BME280_pressure;Samples;Min_cycle;Max_cycle;Signal;HPM_P1;HPM_P2
2022/01/09 00:02:40;;;;;;;;;;;;;;;-4.65;91.86;99800.00;5599797;31;34607;-82
2022/01/09 00:05:44;;;;;;;;;;;;;;;-4.66;91.93;99798.31;5600027;31;34121;-82
2022/01/09 00:08:46;;;;;;;;;;;;;;;-4.56;91.47;99783.31;5600797;31;34481;-82
2022/01/09 00:11:49;;;;;;;;;;;;;;;-4.53;91.67;99778.06;5598801;31;34642;-82
2022/01/09 00:14:52;;;;;;;;;;;;;;;-4.50;92.48;99787.41;5599417;31;34592;-82
2022/01/09 00:17:54;;;;;;;;;;;;;;;-4.60;92.30;99783.50;5599628;31;35219;-83
2022/01/09 00:21:05;;;;;;;;;;;;;;;-4.68;92.25;99776.91;5599081;31;33953;-83
2022/01/09 00:24:10;;;;;;;;;;;;;;;-4.63;91.26;99760.38;5600683;31;34668;-82
2022/01/09 00:27:12;;;;;;;;;;;;;;;-4.69;92.49;99754.56;5598956;31;34468;-82
2022/01/09 00:30:19;;;;;;;;;;;;;;;-4.78;93.23;99752.28;5601734;31;35186;-82
2022/01/09 00:33:22;;;;;;;;;;;;;;;-4.76;93.20;99754.84;5600818;31;36430;-82
2022/01/09 00:36:26;;;;;;;;;;;;;;;-4.87;93.77;99747.47;5597841;31;34334;-84
2022/01/09 00:39:29;;;;;;;;;;;;;;;-4.99;94.34;99744.47;5597932;31;35037;-82
2022/01/09 00:42:32;;;;;;;;;;;;;;;-5.04;94.90;99746.38;5599787;31;34822;-83
2022/01/09 00:45:34;;;;;;;;;;;;;;;-5.07;97.52;99736.16;5598456;31;34186;-83
2022/01/09 00:48:37;;;;;;;;;;;;;;;-5.16;97.41;99734.75;5599372;31;33992;-82
2022/01/09 00:51:40;;;;;;;;;;;;;;;-5.21;98.12;99735.81;5601116;31;34845;-82
2022/01/09 00:54:42;;;;;;;;;;;;;;;-5.20;98.32;99732.34;5587821;31;34566;-82
2022/01/09 00:57:46;;;;;;;;;;;;;;;-5.19;98.33;99731.44;5600317;31;34364;-82
2022/01/09 01:00:50;;;;;;;;;;;;;;;-5.13;99.22;99726.06;5585128;31;34081;-82
2022/01/09 01:03:55;;;;;;;;;;;;;;;-5.03;99.47;99722.25;5598842;31;34145;-82
2022/01/09 01:06:58;;;;;;;;;;;;;;;-4.92;99.90;99721.03;5599565;31;34223;-83
2022/01/09 01:10:00;;;;;;;;;;;;;;;-4.80;99.28;99712.81;5599357;31;34482;-82
2022/01/09 01:13:03;;;;;;;;;;;;;;;-4.66;99.35;99710.53;5599064;31;34973;-82
2022/01/09 01:16:06;;;;;;;;;;;;;;;-4.59;98.56;99705.16;5598929;31;35356;-82
2022/01/09 01:19:10;;;;;;;;;;;;;;;-4.55;97.14;99698.94;5599222;31;34073;-82
2022/01/09 01:22:14;;;;;;;;;;;;;;;-4.62;98.02;99694.94;5599511;31;35023;-82
2022/01/09 01:25:17;;;;;;;;;;;;;;;-4.79;97.75;99683.53;5600082;31;33914;-82
2022/01/09 01:28:20;;;;;;;;;;;;;;;-4.91;97.94;99689.16;5599524;31;34400;-82
2022/01/09 01:31:22;;;;;;;;;;;;;;;-4.99;98.17;99674.78;5599731;31;34313;-84
2022/01/09 01:34:25;;;;;;;;;;;;;;;-5.00;98.73;99670.53;5598738;31;34326;-82
2022/01/09 01:37:30;;;;;;;;;;;;;;;-5.08;99.06;99662.25;5600068;31;34828;-82
2022/01/09 01:40:33;;;;;;;;;;;;;;;-5.16;99.61;99659.94;5600863;31;36081;-82
2022/01/09 01:43:35;;;;;;;;;;;;;;;-5.21;100.00;99661.00;5605713;31;35538;-82
2022/01/09 01:46:38;;;;;;;;;;;;;;;-5.24;100.00;99656.81;5601121;31;34246;-82
2022/01/09 01:49:42;;;;;;;;;;;;;;;-5.23;100.00;99655.06;5599651;31;34361;-82
2022/01/09 01:52:47;;;;;;;;;;;;;;;-5.21;100.00;99645.53;5599578;31;34675;-82
2022/01/09 01:55:55;;;;;;;;;;;;;;;-5.06;100.00;99644.13;5604324;31;34683;-82
2022/01/09 01:59:00;;;;;;;;;;;;;;;-4.83;100.00;99635.50;5599527;31;35455;-83
2022/01/09 02:02:04;;;;;;;;;;;;;;;-4.59;100.00;99638.03;5597846;31;35144;-83
2022/01/09 02:05:07;;;;;;;;;;;;;;;-4.48;99.57;99641.03;5598711;31;34132;-83
2022/01/09 02:08:14;;;;;;;;;;;;;;;-4.47;99.48;99627.22;5598746;31;34667;-83
2022/01/09 02:11:18;;;;;;;;;;;;;;;-4.54;99.78;99630.91;5599587;31;34247;-83
2022/01/09 02:14:23;;;;;;;;;;;;;;;-4.57;100.00;99625.91;5583942;31;35435;-83
2022/01/09 02:17:28;;;;;;;;;;;;;;;-4.57;100.00;99624.16;5598118;31;34592;-83
2022/01/09 02:20:31;;;;;;;;;;;;;;;-4.51;100.00;99617.91;5598899;31;34058;-83
2022/01/09 02:23:37;;;;;;;;;;;;;;;-4.56;100.00;99617.25;5598454;31;34199;-83
2022/01/09 02:26:39;;;;;;;;;;;;;;;-4.61;100.00;99609.66;5597596;31;35118;-83
2022/01/09 02:29:45;;;;;;;;;;;;;;;-4.77;100.00;99609.44;5597682;31;33805;-82
2022/01/09 02:32:47;;;;;;;;;;;;;;;-4.93;100.00;99608.38;5597737;31;34108;-83
2022/01/09 02:35:51;;;;;;;;;;;;;;;-5.05;100.00;99605.37;5598803;31;35596;-83
2022/01/09 02:38:54;;;;;;;;;;;;;;;-5.03;100.00;99595.84;5598245;31;34768;-83
2022/01/09 02:41:59;;;;;;;;;;;;;;;-5.12;100.00;99593.59;5599326;31;35121;-83
2022/01/09 02:45:02;;;;;;;;;;;;;;;-5.13;100.00;99602.25;5597330;31;34292;-82
2022/01/09 02:48:05;;;;;;;;;;;;;;;-5.08;100.00;99600.34;5597535;31;35196;-81
2022/01/09 02:51:16;;;;;;;;;;;;;;;-5.15;100.00;99596.31;5598370;31;34859;-81
2022/01/09 02:57:46;;;;;;;;;;;;;;;-5.30;100.00;99593.41;5598081;31;34327;-81
2022/01/09 03:00:48;;;;;;;;;;;;;;;-5.31;100.00;99594.31;5598501;31;35542;-82
2022/01/09 03:03:53;;;;;;;;;;;;;;;-5.42;100.00;99591.28;5598641;31;35041;-82
2022/01/09 03:06:55;;;;;;;;;;;;;;;-5.46;100.00;99589.75;5599476;31;34110;-81
2022/01/09 03:10:01;;;;;;;;;;;;;;;-5.55;100.00;99588.34;5596957;31;34261;-81
2022/01/09 03:13:06;;;;;;;;;;;;;;;-5.60;100.00;99578.22;5596706;31;35409;-82
2022/01/09 03:16:13;;;;;;;;;;;;;;;-5.64;100.00;99570.66;5585372;31;35255;-81
2022/01/09 03:19:16;;;;;;;;;;;;;;;-5.72;100.00;99576.06;5597382;31;36522;-82
2022/01/09 03:22:18;;;;;;;;;;;;;;;-5.80;100.00;99576.34;5597532;31;35191;-82
2022/01/09 03:25:25;;;;;;;;;;;;;;;-5.75;100.00;99581.34;5598837;31;34876;-83
2022/01/09 03:28:27;;;;;;;;;;;;;;;-5.78;100.00;99584.00;5600656;31;34559;-82
2022/01/09 03:31:30;;;;;;;;;;;;;;;-5.86;100.00;99578.28;5597467;31;34999;-82
2022/01/09 03:34:32;;;;;;;;;;;;;;;-5.87;100.00;99574.03;5596991;31;34532;-82
2022/01/09 03:37:35;;;;;;;;;;;;;;;-5.86;100.00;99565.41;5597615;31;35187;-83
2022/01/09 03:40:38;;;;;;;;;;;;;;;-5.94;100.00;99569.13;5597251;31;34351;-82
2022/01/09 03:43:44;;;;;;;;;;;;;;;-6.01;100.00;99557.38;5596677;31;34431;-83
2022/01/09 03:46:48;;;;;;;;;;;;;;;-6.08;100.00;99550.75;5596275;31;34765;-81
2022/01/09 03:49:51;;;;;;;;;;;;;;;-6.14;100.00;99558.72;5598118;31;34896;-82
2022/01/09 03:52:54;;;;;;;;;;;;;;;-6.12;100.00;99554.31;5596562;31;35244;-81
2022/01/09 03:55:57;;;;;;;;;;;;;;;-6.17;100.00;99561.38;5596030;31;34268;-81
2022/01/09 03:58:59;;;;;;;;;;;;;;;-6.25;100.00;99567.63;5596218;31;34353;-82
2022/01/09 04:02:04;;;;;;;;;;;;;;;-6.23;100.00;99567.59;5596605;31;34041;-82
2022/01/09 04:05:10;;;;;;;;;;;;;;;-6.21;100.00;99565.81;5597285;31;34504;-82
2022/01/09 04:08:15;;;;;;;;;;;;;;;-6.26;100.00;99558.25;5597722;31;34713;-82
2022/01/09 04:11:22;;;;;;;;;;;;;;;-6.22;100.00;99558.97;5599772;31;34620;-82
2022/01/09 04:14:25;;;;;;;;;;;;;;;-6.20;100.00;99562.34;5602467;31;34359;-82
2022/01/09 04:17:38;;;;;;;;;;;;;;;-6.22;100.00;99559.81;5599239;31;34750;-82
2022/01/09 04:20:41;;;;;;;;;;;;;;;-6.24;100.00;99555.59;5599960;31;34563;-82
2022/01/09 04:23:43;;;;;;;;;;;;;;;-6.33;100.00;99548.22;5598564;31;34338;-82
2022/01/09 04:26:46;;;;;;;;;;;;;;;-6.38;100.00;99541.47;5585623;31;34324;-82
2022/01/09 04:29:51;;;;;;;;;;;;;;;-6.32;100.00;99526.72;5599639;31;34235;-82
2022/01/09 04:32:56;;;;;;;;;;;;;;;-6.36;100.00;99526.00;5601211;31;34530;-82
2022/01/09 04:35:59;;;;;;;;;;;;;;;-6.44;100.00;99533.12;5585728;31;34948;-82
2022/01/09 04:39:02;;;;;;;;;;;;;;;-6.50;100.00;99531.59;5599498;31;34258;-82
2022/01/09 04:42:05;;;;;;;;;;;;;;;-6.44;100.00;99521.09;5600442;31;34388;-82
2022/01/09 04:45:08;;;;;;;;;;;;;;;-6.21;100.00;99530.59;5600632;31;34956;-82
2022/01/09 04:48:19;;;;;;;;;;;;;;;-6.33;100.00;99525.88;5598755;31;34560;-82
2022/01/09 04:51:23;;;;;;;;;;;;;;;-6.32;100.00;99530.13;5599590;31;35350;-82
2022/01/09 04:54:26;;;;;;;;;;;;;;;-6.24;100.00;99519.56;5598861;31;34463;-82
2022/01/09 04:57:29;;;;;;;;;;;;;;;-6.23;100.00;99524.66;5599195;31;33831;-82
2022/01/09 05:00:37;;;;;;;;;;;;;;;-6.25;100.00;99526.44;5599123;31;34968;-82
2022/01/09 05:03:39;;;;;;;;;;;;;;;-6.31;100.00;99526.66;5598908;31;34423;-82
2022/01/09 05:06:43;;;;;;;;;;;;;;;-6.31;100.00;99513.78;5598482;31;34768;-82
2022/01/09 05:09:45;;;;;;;;;;;;;;;-6.40;100.00;99521.84;5599128;31;34363;-83
2022/01/09 05:12:48;;;;;;;;;;;;;;;-6.39;100.00;99520.94;5598378;31;34484;-82
2022/01/09 05:15:50;;;;;;;;;;;;;;;-6.25;100.00;99518.69;5600327;31;34598;-82
2022/01/09 05:18:58;;;;;;;;;;;;;;;-6.38;100.00;99518.31;5602058;31;35219;-82
2022/01/09 05:22:01;;;;;;;;;;;;;;;-6.50;100.00;99523.03;5599248;31;34621;-82
2022/01/09 05:25:06;;;;;;;;;;;;;;;-6.64;100.00;99524.34;5598963;31;34575;-83
2022/01/09 05:28:08;;;;;;;;;;;;;;;-6.70;100.00;99527.13;5598522;31;34592;-82
2022/01/09 05:31:13;;;;;;;;;;;;;;;-6.74;100.00;99536.66;5598792;31;34054;-83
2022/01/09 05:34:17;;;;;;;;;;;;;;;-6.81;100.00;99531.78;5597812;31;34541;-82
2022/01/09 05:37:21;;;;;;;;;;;;;;;-6.88;100.00;99524.25;5598723;31;36572;-84
2022/01/09 05:40:24;;;;;;;;;;;;;;;-6.91;100.00;99519.22;5599504;31;34174;-83
2022/01/09 05:43:27;;;;;;;;;;;;;;;-6.93;100.00;99515.88;5599994;31;34822;-82
2022/01/09 05:46:29;;;;;;;;;;;;;;;-6.94;100.00;99514.19;5598495;31;34571;-82
2022/01/09 05:49:32;;;;;;;;;;;;;;;-6.98;100.00;99523.72;5598615;31;35133;-82
2022/01/09 05:52:34;;;;;;;;;;;;;;;-7.02;100.00;99521.28;5598345;31;34568;-82
2022/01/09 05:55:41;;;;;;;;;;;;;;;-7.03;100.00;99514.47;5598684;31;35516;-82
2022/01/09 05:58:44;;;;;;;;;;;;;;;-7.06;100.00;99512.00;5601445;31;34180;-82
2022/01/09 06:01:55;;;;;;;;;;;;;;;-7.06;100.00;99514.56;5598357;31;34847;-82
2022/01/09 06:04:58;;;;;;;;;;;;;;;-7.03;100.00;99511.88;5598422;31;35410;-82
2022/01/09 06:08:00;;;;;;;;;;;;;;;-7.01;100.00;99517.81;5601320;31;36672;-82
2022/01/09 06:11:03;;;;;;;;;;;;;;;-7.10;100.00;99513.84;5600376;31;34413;-83
2022/01/09 06:14:07;;;;;;;;;;;;;;;-7.11;100.00;99517.28;5597709;31;34618;-82
2022/01/09 06:17:13;;;;;;;;;;;;;;;-7.16;100.00;99524.31;5600003;31;35454;-83
2022/01/09 06:20:17;;;;;;;;;;;;;;;-7.20;100.00;99527.84;5598248;31;36220;-83
2022/01/09 06:23:29;;;;;;;;;;;;;;;-7.25;100.00;99520.28;5598864;31;34986;-83
2022/01/09 06:26:31;;;;;;;;;;;;;;;-7.28;100.00;99515.25;5599842;31;34573;-82
2022/01/09 06:29:34;;;;;;;;;;;;;;;-7.28;100.00;99517.81;5603026;31;34130;-82
2022/01/09 06:32:36;;;;;;;;;;;;;;;-7.30;100.00;99515.28;5598362;31;34345;-82
2022/01/09 06:35:39;;;;;;;;;;;;;;;-7.26;100.00;99513.44;5597604;31;34376;-83
2022/01/09 06:38:42;;;;;;;;;;;;;;;-7.30;100.00;99514.47;5597904;31;33924;-82
2022/01/09 06:41:44;;;;;;;;;;;;;;;-7.32;100.00;99519.63;5598742;31;34368;-83
2022/01/09 06:44:47;;;;;;;;;;;;;;;-7.36;100.00;99528.34;5598071;31;34958;-84
2022/01/09 06:47:50;;;;;;;;;;;;;;;-7.37;100.00;99515.50;5597878;31;35330;-83
2022/01/09 06:51:03;;;;;;;;;;;;;;;-7.35;100.00;99524.03;5599964;31;35049;-82
2022/01/09 06:54:06;;;;;;;;;;;;;;;-7.36;100.00;99522.34;5598822;31;34798;-83
2022/01/09 06:57:08;;;;;;;;;;;;;;;-7.31;100.00;99520.47;5599065;31;34825;-84
2022/01/09 07:00:12;;;;;;;;;;;;;;;-7.30;100.00;99515.28;5598907;31;34684;-84
2022/01/09 07:03:15;;;;;;;;;;;;;;;-7.32;100.00;99523.94;5598775;31;34193;-83
2022/01/09 07:06:18;;;;;;;;;;;;;;;-7.33;100.00;99520.53;5597539;31;34897;-83
2022/01/09 07:09:23;;;;;;;;;;;;;;;-7.31;100.00;99518.75;5597916;31;34456;-82
2022/01/09 07:12:27;;;;;;;;;;;;;;;-7.27;100.00;99516.94;5599987;31;34541;-82
2022/01/09 07:15:30;;;;;;;;;;;;;;;-7.19;100.00;99516.69;5598657;31;34341;-82
2022/01/09 07:18:36;;;;;;;;;;;;;;;-7.08;100.00;99526.63;5598506;31;34730;-82
2022/01/09 07:21:38;;;;;;;;;;;;;;;-7.02;100.00;99526.44;5601042;31;34388;-82
2022/01/09 07:24:43;;;;;;;;;;;;;;;-7.01;100.00;99520.41;5600649;31;34385;-82
2022/01/09 07:27:46;;;;;;;;;;;;;;;-6.98;100.00;99522.88;5598436;31;34366;-82
2022/01/09 07:30:50;;;;;;;;;;;;;;;-6.97;100.00;99524.56;5598397;31;34825;-83
2022/01/09 07:33:52;;;;;;;;;;;;;;;-6.83;100.00;99527.53;5598748;31;34539;-83
2022/01/09 07:36:55;;;;;;;;;;;;;;;-6.74;100.00;99521.22;5598589;31;34205;-83
2022/01/09 07:39:59;;;;;;;;;;;;;;;-6.56;100.00;99519.78;5601057;31;33868;-82
2022/01/09 07:43:05;;;;;;;;;;;;;;;-6.44;100.00;99517.66;5600958;31;35362;-83
2022/01/09 07:46:07;;;;;;;;;;;;;;;-6.37;100.00;99519.16;5598724;31;34286;-83
2022/01/09 07:49:12;;;;;;;;;;;;;;;-6.38;100.00;99508.00;5600819;31;34471;-82
2022/01/09 07:52:15;;;;;;;;;;;;;;;-6.26;100.00;99501.59;5600261;31;34436;-83
2022/01/09 07:55:22;;;;;;;;;;;;;;;-6.23;100.00;99501.47;5600298;31;35030;-82
2022/01/09 07:58:24;;;;;;;;;;;;;;;-6.19;100.00;99507.34;5600575;31;34104;-84
2022/01/09 08:01:27;;;;;;;;;;;;;;;-6.15;100.00;99508.94;5599843;31;34532;-83
2022/01/09 08:04:39;;;;;;;;;;;;;;;-6.05;100.00;99501.72;5600445;31;34397;-82
2022/01/09 08:07:46;;;;;;;;;;;;;;;-5.98;100.00;99516.03;5600123;31;34477;-82
2022/01/09 08:10:51;;;;;;;;;;;;;;;-5.75;100.00;99517.78;5600802;31;34927;-82
2022/01/09 08:13:54;;;;;;;;;;;;;;;-5.75;100.00;99517.78;5600318;31;34521;-82
2022/01/09 08:16:56;;;;;;;;;;;;;;;-5.64;100.00;99521.69;5601743;31;34506;-82
2022/01/09 08:19:59;;;;;;;;;;;;;;;-5.61;100.00;99519.81;5600316;31;35087;-82
2022/01/09 08:23:02;;;;;;;;;;;;;;;-5.53;100.00;99521.25;5600003;31;34453;-83
2022/01/09 08:26:13;;;;;;;;;;;;;;;-5.45;100.00;99516.62;5601268;31;35307;-82
2022/01/09 08:29:17;;;;;;;;;;;;;;;-5.34;100.00;99496.44;5600207;31;35019;-83
2022/01/09 08:32:19;;;;;;;;;;;;;;;-5.23;100.00;99502.91;5601091;31;35406;-82
2022/01/09 08:35:22;;;;;;;;;;;;;;;-5.12;100.00;99501.59;5599792;31;35401;-83
2022/01/09 08:38:25;;;;;;;;;;;;;;;-4.94;100.00;99513.81;5599719;31;35035;-83
2022/01/09 08:41:27;;;;;;;;;;;;;;;-4.90;100.00;99512.81;5599358;31;34468;-82
2022/01/09 08:44:30;;;;;;;;;;;;;;;-4.86;100.00;99501.44;5600093;31;34251;-83
2022/01/09 08:47:36;;;;;;;;;;;;;;;-4.79;100.00;99496.88;5600759;31;34420;-82
2022/01/09 08:50:39;;;;;;;;;;;;;;;-4.62;100.00;99499.59;5602348;31;35297;-82
2022/01/09 08:53:50;;;;;;;;;;;;;;;-4.61;100.00;99510.75;5603346;31;35464;-84
2022/01/09 08:56:53;;;;;;;;;;;;;;;-4.61;100.00;99521.06;5601248;31;34444;-82
2022/01/09 08:59:56;;;;;;;;;;;;;;;-4.48;100.00;99521.37;5599989;31;34461;-83
2022/01/09 09:02:58;;;;;;;;;;;;;;;-4.38;100.00;99513.19;5600065;31;34464;-82
2022/01/09 09:06:01;;;;;;;;;;;;;;;-4.24;100.00;99507.44;5599139;31;34467;-82
2022/01/09 09:09:04;;;;;;;;;;;;;;;-4.24;100.00;99514.34;5599207;31;34090;-83
2022/01/09 09:12:07;;;;;;;;;;;;;;;-4.28;100.00;99517.97;5598343;31;34397;-83
2022/01/09 09:15:12;;;;;;;;;;;;;;;-4.29;100.00;99521.44;5598645;31;35587;-83
2022/01/09 09:18:14;;;;;;;;;;;;;;;-4.24;100.00;99509.19;5600289;31;35232;-84
2022/01/09 09:21:19;;;;;;;;;;;;;;;-4.08;100.00;99515.34;5601178;31;35148;-83
2022/01/09 09:24:22;;;;;;;;;;;;;;;-4.02;100.00;99503.91;5598084;31;34590;-82
2022/01/09 09:27:30;;;;;;;;;;;;;;;-3.94;100.00;99495.81;5598779;31;35395;-83
2022/01/09 09:30:32;;;;;;;;;;;;;;;-3.92;100.00;99501.75;5598659;31;34462;-83
2022/01/09 09:33:37;;;;;;;;;;;;;;;-3.74;100.00;99513.00;5597618;31;35243;-82
2022/01/09 09:36:45;;;;;;;;;;;;;;;-3.54;100.00;99512.06;5598143;31;34633;-83
2022/01/09 09:39:48;;;;;;;;;;;;;;;-3.33;100.00;99506.84;5598556;31;33970;-82
2022/01/09 09:42:51;;;;;;;;;;;;;;;-3.14;100.00;99511.97;5598808;31;35448;-82
2022/01/09 09:45:54;;;;;;;;;;;;;;;-2.85;100.00;99513.13;5599298;31;34827;-82
2022/01/09 09:48:57;;;;;;;;;;;;;;;-2.64;99.71;99516.44;5599563;31;34857;-83
2022/01/09 09:51:59;;;;;;;;;;;;;;;-2.58;97.97;99511.84;5596316;31;35491;-82
2022/01/09 09:55:05;;;;;;;;;;;;;;;-2.56;97.76;99518.66;5596971;31;34453;-82
2022/01/09 09:58:07;;;;;;;;;;;;;;;-2.39;97.32;99512.63;5597577;31;34308;-82
2022/01/09 10:01:24;;;;;;;;;;;;;;;-2.22;96.21;99518.66;5598137;31;34302;-82
2022/01/09 10:04:27;;;;;;;;;;;;;;;-1.95;95.72;99523.34;5604058;31;34596;-82
2022/01/09 10:07:29;;;;;;;;;;;;;;;-2.19;95.32;99528.87;5597909;31;35330;-82
2022/01/09 10:10:33;;;;;;;;;;;;;;;-2.08;95.14;99523.97;5596105;31;34243;-82
2022/01/09 10:13:35;;;;;;;;;;;;;;;-2.09;94.47;99532.66;5596816;31;34125;-82
2022/01/09 10:16:38;;;;;;;;;;;;;;;-1.86;94.47;99531.47;5597316;31;34549;-83
2022/01/09 10:19:40;;;;;;;;;;;;;;;-1.84;93.12;99530.53;5597786;31;34952;-83
2022/01/09 10:22:47;;;;;;;;;;;;;;;-1.64;92.67;99532.94;5596870;31;34420;-82
2022/01/09 10:25:50;;;;;;;;;;;;;;;-1.66;92.86;99533.91;5596430;31;34232;-82
2022/01/09 10:28:52;;;;;;;;;;;;;;;-1.63;93.14;99533.75;5597611;31;35492;-82
2022/01/09 10:31:55;;;;;;;;;;;;;;;-1.56;92.56;99535.94;5596886;31;34782;-82
2022/01/09 10:35:09;;;;;;;;;;;;;;;-1.41;91.00;99534.28;5596130;31;34002;-82
2022/01/09 10:38:21;;;;;;;;;;;;;;;-1.45;91.16;99531.94;5595985;31;34516;-82
2022/01/09 10:41:43;;;;;;;;;;;;;;;-1.66;93.02;99524.41;5596726;31;35110;-82
2022/01/09 10:44:54;;;;;;;;;;;;;;;-1.72;93.18;99511.75;5595900;31;35062;-83
2022/01/09 10:48:11;;;;;;;;;;;;;;;-1.62;92.65;99507.72;5596393;31;34435;-83
2022/01/09 10:51:14;;;;;;;;;;;;;;;-1.60;92.30;99503.31;5595736;31;34062;-82
2022/01/09 10:54:30;;;;;;;;;;;;;;;-1.62;92.50;99507.72;5596795;31;35341;-83
2022/01/09 10:57:34;;;;;;;;;;;;;;;-1.62;92.26;99493.94;5596868;31;34386;-83
2022/01/09 11:00:37;;;;;;;;;;;;;;;-1.66;92.13;99492.41;5598153;31;34604;-82
2022/01/09 11:03:41;;;;;;;;;;;;;;;-1.58;92.23;99480.72;5598044;31;34909;-82
2022/01/09 11:06:44;;;;;;;;;;;;;;;-1.47;91.05;99482.72;5597938;31;34854;-83
2022/01/09 11:09:49;;;;;;;;;;;;;;;-1.43;91.22;99483.41;5595622;31;34520;-82
2022/01/09 11:12:58;;;;;;;;;;;;;;;-1.43;91.91;99480.81;5595899;31;34143;-82
2022/01/09 11:19:26;;;;;;;;;;;;;;;-1.32;90.86;99481.03;5602896;31;35067;-83
2022/01/09 11:22:28;;;;;;;;;;;;;;;-1.19;90.85;99480.34;5599917;31;35475;-82
2022/01/09 11:25:33;;;;;;;;;;;;;;;-0.98;89.69;99479.12;5598150;31;35041;-82
2022/01/09 11:28:41;;;;;;;;;;;;;;;-0.90;88.68;99480.44;5598041;31;34328;-82
2022/01/09 11:32:02;;;;;;;;;;;;;;;-1.11;89.38;99476.38;5597798;31;35172;-82
2022/01/09 11:35:06;;;;;;;;;;;;;;;-0.80;89.53;99476.41;5597888;31;34534;-83
2022/01/09 11:38:28;;;;;;;;;;;;;;;-0.50;89.02;99472.91;5597789;31;34392;-83
2022/01/09 11:41:31;;;;;;;;;;;;;;;-0.41;87.68;99477.59;5599800;31;34678;-84
2022/01/09 11:44:33;;;;;;;;;;;;;;;-0.48;86.26;99466.72;5599453;31;34538;-83
2022/01/09 11:47:46;;;;;;;;;;;;;;;-0.54;87.44;99461.06;5599072;31;34472;-83
2022/01/09 11:51:05;;;;;;;;;;;;;;;-0.33;86.29;99470.16;5598214;31;34595;-83
2022/01/09 11:54:16;;;;;;;;;;;;;;;-0.44;84.74;99462.16;5598575;31;34415;-83
2022/01/09 11:57:37;;;;;;;;;;;;;;;-0.35;85.15;99466.81;5598652;31;34482;-83
2022/01/09 12:00:43;;;;;;;;;;;;;;;-0.14;85.51;99461.25;5597733;31;34701;-82
2022/01/09 12:03:48;;;;;;;;;;;;;;;-0.56;86.05;99468.09;5597684;31;34202;-82
2022/01/09 12:06:54;;;;;;;;;;;;;;;-0.83;87.67;99456.62;5597650;31;34386;-82
2022/01/09 12:10:00;;;;;;;;;;;;;;;-0.70;87.02;99446.34;5597984;31;34728;-83
2022/01/09 12:13:04;;;;;;;;;;;;;;;-0.37;86.93;99439.25;5598858;31;34881;-83
2022/01/09 12:16:08;;;;;;;;;;;;;;;-0.17;84.67;99443.25;5598103;31;34105;-83
2022/01/09 12:19:11;;;;;;;;;;;;;;;-0.21;84.38;99433.97;5597517;31;34754;-83
2022/01/09 12:22:14;;;;;;;;;;;;;;;0.03;83.60;99438.59;5596917;31;34982;-83
2022/01/09 12:25:25;;;;;;;;;;;;;;;-0.30;84.60;99431.94;5598180;31;35591;-83
2022/01/09 12:28:35;;;;;;;;;;;;;;;-0.43;84.85;99426.59;5597741;31;34959;-83
2022/01/09 12:31:43;;;;;;;;;;;;;;;-0.26;84.75;99429.03;5602217;31;34288;-82
2022/01/09 12:35:07;;;;;;;;;;;;;;;-0.10;84.43;99417.69;5602267;31;34511;-83
2022/01/09 12:38:22;;;;;;;;;;;;;;;-0.25;84.57;99414.25;5599476;31;35442;-82
2022/01/09 12:41:29;;;;;;;;;;;;;;;-0.02;85.50;99415.47;5597015;31;35496;-81
2022/01/09 12:44:34;;;;;;;;;;;;;;;0.12;83.10;99412.81;5596885;31;34841;-81
2022/01/09 12:47:38;;;;;;;;;;;;;;;-0.04;83.89;99417.31;5596390;31;33913;-81
2022/01/09 12:50:40;;;;;;;;;;;;;;;-0.20;84.54;99415.66;5596025;31;34720;-81
2022/01/09 12:53:48;;;;;;;;;;;;;;;0.07;84.19;99414.03;5595998;31;34372;-82
2022/01/09 12:56:51;;;;;;;;;;;;;;;0.32;83.24;99417.69;5597481;31;34266;-83
2022/01/09 12:59:55;;;;;;;;;;;;;;;0.29;81.37;99429.97;5598199;31;34609;-82
2022/01/09 13:03:00;;;;;;;;;;;;;;;0.13;81.14;99413.66;5598068;31;34474;-83
2022/01/09 13:06:07;;;;;;;;;;;;;;;0.10;82.45;99419.06;5597227;31;34842;-82
2022/01/09 13:09:17;;;;;;;;;;;;;;;0.34;81.12;99434.06;5596351;31;34814;-82
2022/01/09 13:12:23;;;;;;;;;;;;;;;0.41;81.25;99437.94;5596515;31;34096;-82
2022/01/09 13:15:35;;;;;;;;;;;;;;;0.25;80.06;99428.50;5595901;31;34555;-82
2022/01/09 13:18:40;;;;;;;;;;;;;;;0.41;81.35;99440.53;5596756;31;34489;-82
2022/01/09 13:21:47;;;;;;;;;;;;;;;0.32;80.80;99428.09;5596404;31;34167;-83
2022/01/09 13:25:00;;;;;;;;;;;;;;;0.43;81.56;99433.47;5596447;31;34167;-82
2022/01/09 13:28:03;;;;;;;;;;;;;;;0.50;80.38;99432.16;5596832;31;34505;-83
2022/01/09 13:31:11;;;;;;;;;;;;;;;0.45;81.08;99435.03;5596187;31;35371;-82
2022/01/09 13:34:15;;;;;;;;;;;;;;;0.38;80.82;99427.72;5598731;31;33700;-82
2022/01/09 13:37:17;;;;;;;;;;;;;;;0.21;82.25;99419.22;5596335;31;34125;-82
2022/01/09 13:40:20;;;;;;;;;;;;;;;0.21;82.68;99421.81;5596335;31;34413;-82
2022/01/09 13:43:23;;;;;;;;;;;;;;;-0.02;81.28;99424.09;5596743;31;34301;-82
2022/01/09 13:46:25;;;;;;;;;;;;;;;-0.12;82.76;99410.00;5602338;31;34538;-82
2022/01/09 13:49:29;;;;;;;;;;;;;;;-0.02;82.78;99415.47;5601684;31;35490;-82
2022/01/09 13:52:33;;;;;;;;;;;;;;;-0.02;82.61;99416.28;5597462;31;34284;-82
2022/01/09 13:55:36;;;;;;;;;;;;;;;-0.01;82.68;99409.34;5597788;31;34484;-83
2022/01/09 13:58:40;;;;;;;;;;;;;;;0.01;82.87;99410.06;5595764;31;34430;-82
2022/01/09 14:01:43;;;;;;;;;;;;;;;0.03;82.86;99413.41;5595770;31;34134;-83
2022/01/09 14:05:06;;;;;;;;;;;;;;;0.06;81.53;99413.22;5596872;31;34766;-83
2022/01/09 14:08:10;;;;;;;;;;;;;;;-0.07;82.41;99417.50;5596067;31;35131;-82
2022/01/09 14:11:14;;;;;;;;;;;;;;;-0.19;82.03;99419.94;5596703;31;34977;-82
2022/01/09 14:14:25;;;;;;;;;;;;;;;-0.22;82.67;99424.47;5598397;31;34270;-82
2022/01/09 14:17:33;;;;;;;;;;;;;;;-0.39;82.87;99422.91;5598267;31;34067;-83
2022/01/09 14:20:41;;;;;;;;;;;;;;;-0.51;83.45;99421.91;5595679;31;33873;-82
2022/01/09 14:23:48;;;;;;;;;;;;;;;-0.44;83.79;99415.41;5596556;31;34474;-83
2022/01/09 14:26:57;;;;;;;;;;;;;;;-0.40;82.25;99416.88;5595981;31;34383;-82
2022/01/09 14:30:23;;;;;;;;;;;;;;;-0.35;82.26;99420.03;5596181;31;35092;-82
2022/01/09 14:33:28;;;;;;;;;;;;;;;-0.34;80.74;99411.31;5597199;31;34783;-83
2022/01/09 14:36:32;;;;;;;;;;;;;;;-0.44;82.40;99418.00;5597060;31;34670;-83
2022/01/09 14:39:35;;;;;;;;;;;;;;;-0.46;81.91;99417.25;5596787;31;34439;-83
2022/01/09 14:42:38;;;;;;;;;;;;;;;-0.44;82.51;99419.75;5595548;31;34100;-83
2022/01/09 14:45:41;;;;;;;;;;;;;;;-0.47;82.15;99418.16;5595034;31;34316;-82
2022/01/09 14:48:45;;;;;;;;;;;;;;;-0.53;82.26;99421.16;5595542;31;35361;-82
2022/01/09 14:51:50;;;;;;;;;;;;;;;-0.68;84.34;99418.53;5595186;31;34896;-82
2022/01/09 14:54:53;;;;;;;;;;;;;;;-0.74;84.00;99412.88;5594834;31;34255;-82
2022/01/09 14:57:55;;;;;;;;;;;;;;;-0.75;83.04;99411.19;5595458;31;34538;-83
2022/01/09 15:00:59;;;;;;;;;;;;;;;-0.72;83.35;99414.44;5598186;31;35003;-82
2022/01/09 15:04:02;;;;;;;;;;;;;;;-0.76;84.53;99420.75;5598755;31;34400;-83
2022/01/09 15:07:05;;;;;;;;;;;;;;;-0.88;85.43;99418.88;5594581;31;34725;-82
2022/01/09 15:10:08;;;;;;;;;;;;;;;-0.92;85.22;99423.41;5595035;31;34259;-82
2022/01/09 15:13:14;;;;;;;;;;;;;;;-0.86;85.97;99422.22;5595147;31;35022;-82
2022/01/09 15:16:16;;;;;;;;;;;;;;;-0.91;85.87;99421.66;5596213;31;34619;-82
2022/01/09 15:19:22;;;;;;;;;;;;;;;-0.97;85.28;99428.87;5596277;31;34283;-82
2022/01/09 15:22:25;;;;;;;;;;;;;;;-0.99;85.88;99428.13;5596365;31;34711;-82
2022/01/09 15:25:27;;;;;;;;;;;;;;;-0.98;85.66;99432.41;5595532;31;34236;-82
2022/01/09 15:28:33;;;;;;;;;;;;;;;-0.97;86.21;99431.47;5594602;31;35291;-82
2022/01/09 15:31:35;;;;;;;;;;;;;;;-0.93;85.86;99440.75;5593695;31;34619;-82
2022/01/09 15:34:38;;;;;;;;;;;;;;;-0.94;86.34;99441.66;5594572;31;34250;-82
2022/01/09 15:37:41;;;;;;;;;;;;;;;-0.86;86.13;99435.22;5594496;31;34430;-82
2022/01/09 15:40:45;;;;;;;;;;;;;;;-0.73;84.71;99446.53;5594741;31;34701;-82
2022/01/09 15:43:48;;;;;;;;;;;;;;;-0.71;85.73;99449.88;5594621;31;35156;-82
2022/01/09 15:46:50;;;;;;;;;;;;;;;-0.68;84.92;99454.06;5593827;31;35919;-82
2022/01/09 15:49:55;;;;;;;;;;;;;;;-0.72;85.43;99461.19;5594505;31;34814;-83
2022/01/09 15:52:59;;;;;;;;;;;;;;;-0.78;85.61;99453.78;5594787;31;34104;-83
2022/01/09 15:56:03;;;;;;;;;;;;;;;-0.78;86.14;99464.16;5596343;31;34891;-82
2022/01/09 15:59:08;;;;;;;;;;;;;;;-0.80;86.27;99466.84;5594337;31;33978;-83
2022/01/09 16:02:11;;;;;;;;;;;;;;;-0.79;86.79;99463.31;5594406;31;35162;-83
2022/01/09 16:05:16;;;;;;;;;;;;;;;-0.79;85.69;99467.69;5593718;31;34438;-82